Time;durP1;ratioP1;P1;durP2;ratioP2;P2;SDS_P1;SDS_P2;PMS_P1;PMS_P2;Temp;Humidity;BMP_temperature;BMP_pressure;BME280_temperature;BME280_humidity;BME280_pressure;Samples;Min_cycle;Max_cycle;Signal;HPM_P1;HPM_P2
2022/09/06 00:00:07;;;;;;;7.45;3.53;;;20.90;98.10;;;;;;5010901;28;20103;-76
2022/09/06 00:02:34;;;;;;;10.48;3.60;;;20.70;98.20;;;;;;5013345;28;20135;-76
2022/09/06 00:05:00;;;;;;;6.07;3.60;;;20.70;98.40;;;;;;4996750;28;20124;-76
2022/09/06 00:07:26;;;;;;;8.80;3.25;;;20.60;98.50;;;;;;5013157;28;20034;-76
2022/09/06 00:09:51;;;;;;;4.75;3.40;;;20.60;98.40;;;;;;4996722;28;20053;-75
2022/09/06 00:12:17;;;;;;;9.50;3.40;;;20.50;98.50;;;;;;4995604;28;20054;-76
2022/09/06 00:14:43;;;;;;;6.72;3.42;;;20.60;98.60;;;;;;5013141;28;20084;-75
2022/09/06 00:17:09;;;;;;;9.18;3.67;;;20.50;98.70;;;;;;4994899;28;20389;-75
2022/09/06 00:19:34;;;;;;;9.82;3.78;;;20.50;98.80;;;;;;4989805;28;20061;-77
2022/09/06 00:22:00;;;;;;;5.90;3.72;;;20.40;98.90;;;;;;4993164;28;20043;-75
2022/09/06 00:24:26;;;;;;;10.27;3.60;;;20.40;99.00;;;;;;4993548;28;20365;-75
2022/09/06 00:26:51;;;;;;;10.43;3.60;;;20.30;99.00;;;;;;4977166;28;20806;-76
2022/09/06 00:29:17;;;;;;;7.47;3.60;;;20.30;99.10;;;;;;4992633;28;20042;-76
2022/09/06 00:31:43;;;;;;;8.32;3.53;;;20.20;99.30;;;;;;4977092;28;20397;-74
2022/09/06 00:34:08;;;;;;;10.15;3.70;;;20.20;99.30;;;;;;4998495;28;20050;-75
2022/09/06 00:36:34;;;;;;;9.95;3.83;;;20.10;99.40;;;;;;5012793;28;20034;-75
2022/09/06 00:42:41;;;;;;;7.78;3.83;;;20.10;99.60;;;;;;4995179;28;20167;-76
2022/09/06 00:45:08;;;;;;;5.63;3.65;;;20.10;99.60;;;;;;4994577;28;20046;-75
2022/09/06 00:47:37;;;;;;;8.30;3.83;;;20.10;99.60;;;;;;4992957;28;20042;-75
2022/09/06 00:50:04;;;;;;;5.70;3.33;;;20.00;99.70;;;;;;4996634;28;20124;-76
2022/09/06 00:52:32;;;;;;;8.50;3.65;;;20.00;99.70;;;;;;5011823;28;20374;-76
2022/09/06 00:54:58;;;;;;;7.38;3.40;;;19.90;99.80;;;;;;5012131;28;20120;-75
2022/09/06 00:57:26;;;;;;;9.60;3.90;;;19.90;99.90;;;;;;5011260;28;20042;-75
2022/09/06 00:59:54;;;;;;;10.75;3.88;;;19.80;99.90;;;;;;5012138;28;20049;-75
2022/09/06 01:02:20;;;;;;;9.13;3.85;;;19.80;99.90;;;;;;4995437;28;20042;-76
2022/09/06 01:04:47;;;;;;;9.15;3.40;;;19.70;99.90;;;;;;4995856;28;20061;-76
2022/09/06 01:07:37;;;;;;;12.02;3.70;;;19.70;99.90;;;;;;5010382;28;20046;-75
2022/09/06 01:10:30;;;;;;;7.65;3.88;;;19.70;99.90;;;;;;5011470;28;20122;-75
2022/09/06 01:13:01;;;;;;;6.60;3.92;;;19.70;99.90;;;;;;5010937;28;20161;-76
2022/09/06 01:15:36;;;;;;;11.00;4.18;;;19.60;99.90;;;;;;5011699;28;20042;-76
2022/09/06 01:18:40;;;;;;;6.03;3.80;;;19.60;99.90;;;;;;5011586;28;20042;-74
2022/09/06 01:21:13;;;;;;;11.27;4.40;;;19.60;99.90;;;;;;4995107;28;20052;-75
2022/09/06 01:24:00;;;;;;;11.98;4.28;;;19.60;99.90;;;;;;4991572;28;20398;-74
2022/09/06 01:27:23;;;;;;;7.10;4.25;;;19.50;99.90;;;;;;5004271;28;20049;-76
2022/09/06 01:30:11;;;;;;;5.90;4.13;;;19.60;99.90;;;;;;4993769;28;20042;-75
2022/09/06 01:33:00;;;;;;;6.05;3.63;;;19.50;99.90;;;;;;4993597;28;20057;-76
2022/09/06 01:35:48;;;;;;;8.35;4.10;;;19.50;99.90;;;;;;4993727;28;20122;-75
2022/09/06 01:38:14;;;;;;;6.80;4.00;;;19.50;99.90;;;;;;4993563;28;20056;-75
2022/09/06 01:40:40;;;;;;;8.43;3.75;;;19.50;99.90;;;;;;4994174;28;20468;-76
2022/09/06 01:43:11;;;;;;;6.05;4.05;;;19.40;99.90;;;;;;4992113;28;20125;-76
2022/09/06 01:45:44;;;;;;;6.93;4.00;;;19.40;99.90;;;;;;4994225;28;20065;-75
2022/09/06 01:48:29;;;;;;;9.88;4.13;;;19.40;99.90;;;;;;4977792;28;20121;-75
2022/09/06 01:51:27;;;;;;;8.00;4.03;;;19.40;99.90;;;;;;4993775;28;20054;-75
2022/09/06 01:54:23;;;;;;;9.68;3.75;;;19.40;99.90;;;;;;4977505;28;20046;-75
2022/09/06 01:57:09;;;;;;;9.23;3.83;;;19.40;99.90;;;;;;4994153;28;20096;-76
2022/09/06 02:00:08;;;;;;;9.18;4.03;;;19.40;99.90;;;;;;4992801;28;20081;-75
2022/09/06 02:03:05;;;;;;;9.48;3.58;;;19.40;99.90;;;;;;4993830;28;20597;-76
2022/09/06 02:05:40;;;;;;;6.75;3.90;;;19.40;99.90;;;;;;4977030;28;20052;-76
2022/09/06 02:08:15;;;;;;;6.88;4.10;;;19.40;99.90;;;;;;4974229;28;20406;-76
2022/09/06 02:10:59;;;;;;;8.57;3.80;;;19.40;99.90;;;;;;4973980;28;20054;-75
2022/09/06 02:13:30;;;;;;;8.20;3.85;;;19.50;99.90;;;;;;4972547;28;20237;-76
2022/09/06 02:16:06;;;;;;;9.00;3.72;;;19.50;99.90;;;;;;4959896;28;20089;-77
2022/09/06 02:18:39;;;;;;;9.60;3.80;;;19.50;99.90;;;;;;5009249;28;20042;-77
2022/09/06 02:21:07;;;;;;;5.35;3.90;;;19.50;99.90;;;;;;4977408;28;20065;-76
2022/09/06 02:23:38;;;;;;;6.30;3.70;;;19.40;99.90;;;;;;4973480;28;20061;-76
2022/09/06 02:26:20;;;;;;;10.50;4.05;;;19.50;99.90;;;;;;4973870;28;20078;-75
2022/09/06 02:28:46;;;;;;;9.77;3.60;;;19.40;99.90;;;;;;4972573;28;20141;-75
2022/09/06 02:31:24;;;;;;;6.13;3.63;;;19.30;99.90;;;;;;4973836;28;20050;-76
2022/09/06 02:33:50;;;;;;;11.85;4.30;;;19.30;99.90;;;;;;5005745;28;20049;-76
2022/09/06 02:36:17;;;;;;;8.85;3.83;;;19.40;99.90;;;;;;4973626;28;20516;-76
2022/09/06 02:38:44;;;;;;;5.47;3.75;;;19.30;99.90;;;;;;4982024;28;20045;-75
2022/09/06 02:41:12;;;;;;;9.02;4.10;;;19.40;99.90;;;;;;4993095;28;20050;-76
2022/09/06 02:43:38;;;;;;;7.70;3.90;;;19.30;99.90;;;;;;4966669;28;20141;-76
2022/09/06 02:46:04;;;;;;;4.15;3.75;;;19.30;99.90;;;;;;4990786;28;20046;-75
2022/09/06 02:48:30;;;;;;;9.70;4.55;;;19.30;99.90;;;;;;4973509;28;20034;-75
2022/09/06 02:50:56;;;;;;;13.50;4.07;;;19.30;99.90;;;;;;4973635;28;20352;-76
2022/09/06 02:53:21;;;;;;;5.22;4.15;;;19.30;99.90;;;;;;4974519;28;20117;-76
2022/09/06 02:55:47;;;;;;;11.63;3.90;;;19.20;99.90;;;;;;4975022;28;20112;-76
2022/09/06 02:58:14;;;;;;;11.30;4.45;;;19.30;99.90;;;;;;4989572;28;20482;-76
2022/09/06 03:00:39;;;;;;;7.50;4.30;;;19.30;99.90;;;;;;4974563;28;20097;-75
2022/09/06 03:03:06;;;;;;;9.93;4.40;;;19.30;99.90;;;;;;4974409;28;20093;-75
2022/09/06 03:05:34;;;;;;;9.07;4.40;;;19.30;99.90;;;;;;4972839;28;20108;-76
2022/09/06 03:08:00;;;;;;;7.03;4.35;;;19.30;99.90;;;;;;4974565;28;20050;-76
2022/09/06 03:10:26;;;;;;;10.50;4.57;;;19.30;99.90;;;;;;4999763;28;20220;-76
2022/09/06 03:12:52;;;;;;;9.25;4.80;;;19.30;99.90;;;;;;4979014;28;20042;-76
2022/09/06 03:15:18;;;;;;;10.23;4.47;;;19.30;99.90;;;;;;4995159;28;20097;-75
2022/09/06 03:17:43;;;;;;;10.77;4.68;;;19.20;99.90;;;;;;4994628;28;20080;-75
2022/09/06 03:20:10;;;;;;;5.93;4.40;;;19.20;99.90;;;;;;5015744;28;20100;-76
2022/09/06 03:22:38;;;;;;;8.65;5.18;;;19.30;99.90;;;;;;4997012;28;20034;-74
2022/09/06 03:25:07;;;;;;;8.90;4.63;;;19.30;99.90;;;;;;5014018;28;20377;-75
2022/09/06 03:27:33;;;;;;;11.93;5.20;;;19.30;99.90;;;;;;4996662;28;20103;-77
2022/09/06 03:29:59;;;;;;;8.30;4.90;;;19.30;99.90;;;;;;5014315;28;20041;-76
2022/09/06 03:32:24;;;;;;;10.18;4.85;;;19.30;99.90;;;;;;5014874;28;20038;-75
2022/09/06 03:34:50;;;;;;;12.63;5.35;;;19.30;99.90;;;;;;5024455;28;20482;-75
2022/09/06 03:37:16;;;;;;;8.60;4.72;;;19.20;99.90;;;;;;4997264;28;20066;-75
2022/09/06 03:39:42;;;;;;;12.00;5.07;;;19.20;99.90;;;;;;5012095;28;20523;-75
2022/09/06 03:42:08;;;;;;;13.77;4.78;;;19.20;99.90;;;;;;5012712;28;20045;-75
2022/09/06 03:44:33;;;;;;;9.02;4.80;;;19.20;99.90;;;;;;4997455;28;20430;-75
2022/09/06 03:46:59;;;;;;;7.75;4.88;;;19.20;99.90;;;;;;4997118;28;20053;-75
2022/09/06 03:49:25;;;;;;;5.88;4.63;;;19.10;99.90;;;;;;4997378;28;20045;-75
2022/09/06 03:51:50;;;;;;;7.38;4.82;;;19.10;99.90;;;;;;4997072;28;20042;-76
2022/09/06 03:54:16;;;;;;;6.15;4.70;;;19.10;99.90;;;;;;4996902;28;20050;-74
2022/09/06 03:56:42;;;;;;;10.70;4.75;;;19.20;99.90;;;;;;5011658;28;20038;-76
2022/09/06 03:59:07;;;;;;;6.28;4.72;;;19.20;99.90;;;;;;5012433;28;20042;-74
2022/09/06 04:01:33;;;;;;;6.68;4.40;;;19.10;99.90;;;;;;5012838;28;20438;-75
2022/09/06 04:04:00;;;;;;;6.90;4.65;;;19.10;99.90;;;;;;4996168;28;20088;-75
2022/09/06 04:06:26;;;;;;;6.60;4.63;;;19.00;99.90;;;;;;5012856;28;20045;-76
2022/09/06 04:08:52;;;;;;;10.10;5.50;;;19.00;99.90;;;;;;4996555;28;20347;-75
2022/09/06 04:11:18;;;;;;;8.13;4.70;;;18.90;99.90;;;;;;5012672;28;20050;-75
2022/09/06 04:13:43;;;;;;;7.72;4.85;;;18.90;99.90;;;;;;4978076;28;20124;-75
2022/09/06 04:16:09;;;;;;;6.80;4.93;;;19.00;99.90;;;;;;4996293;28;20468;-75
2022/09/06 04:18:35;;;;;;;7.78;5.20;;;19.00;99.90;;;;;;4987065;28;20046;-74
2022/09/06 04:21:01;;;;;;;12.50;5.35;;;18.90;99.90;;;;;;4993027;28;20042;-75
2022/09/06 04:23:27;;;;;;;7.28;5.15;;;18.90;99.90;;;;;;4995922;28;20209;-75
2022/09/06 04:25:55;;;;;;;11.15;5.30;;;18.90;99.90;;;;;;4996449;28;20119;-76
2022/09/06 04:28:21;;;;;;;9.82;5.47;;;18.90;99.90;;;;;;5011784;28;20046;-75
2022/09/06 04:30:56;;;;;;;6.72;5.53;;;18.90;99.90;;;;;;5012537;28;20073;-76
2022/09/06 04:33:24;;;;;;;8.88;4.85;;;18.80;99.90;;;;;;4996666;28;20056;-75
2022/09/06 04:35:57;;;;;;;9.13;5.20;;;18.80;99.90;;;;;;5013089;28;20046;-76
2022/09/06 04:38:24;;;;;;;9.38;5.60;;;18.80;99.90;;;;;;5012052;28;20033;-75
2022/09/06 04:40:50;;;;;;;7.75;5.65;;;18.70;99.90;;;;;;4997031;28;20477;-75
2022/09/06 04:43:16;;;;;;;10.85;5.82;;;18.70;99.90;;;;;;5012290;28;20053;-75
2022/09/06 04:45:42;;;;;;;15.10;5.47;;;18.70;99.90;;;;;;5012903;28;20394;-76
2022/09/06 04:48:08;;;;;;;10.75;5.70;;;18.70;99.90;;;;;;4995606;28;20034;-76
2022/09/06 04:50:34;;;;;;;10.23;5.93;;;18.70;99.90;;;;;;5012409;28;20117;-75
2022/09/06 04:53:00;;;;;;;12.85;5.93;;;18.70;99.90;;;;;;5012161;28;20125;-76
2022/09/06 04:55:28;;;;;;;7.68;6.03;;;18.70;99.90;;;;;;5005048;28;20062;-75
2022/09/06 04:57:55;;;;;;;9.70;6.22;;;18.70;99.90;;;;;;4991553;28;20478;-74
2022/09/06 05:00:21;;;;;;;7.97;6.07;;;18.70;99.90;;;;;;5000415;28;20049;-75
2022/09/06 05:02:47;;;;;;;8.00;6.03;;;18.70;99.90;;;;;;5011991;28;20037;-76
2022/09/06 05:05:13;;;;;;;8.68;6.30;;;18.70;99.90;;;;;;5011967;28;20466;-75
2022/09/06 05:07:38;;;;;;;11.40;6.75;;;18.60;99.90;;;;;;4995923;28;20081;-75
2022/09/06 05:10:04;;;;;;;7.18;6.25;;;18.60;99.90;;;;;;4995576;28;20045;-75
2022/09/06 05:12:30;;;;;;;13.20;7.18;;;18.50;99.90;;;;;;4992647;28;20049;-76
2022/09/06 05:14:56;;;;;;;11.20;6.68;;;18.40;99.90;;;;;;5011915;28;20045;-75
2022/09/06 05:17:21;;;;;;;9.65;6.70;;;18.40;99.90;;;;;;5010039;28;20163;-75
2022/09/06 05:19:47;;;;;;;10.48;6.60;;;18.40;99.90;;;;;;4993418;28;20358;-75
2022/09/06 05:22:13;;;;;;;9.23;6.25;;;18.40;99.90;;;;;;4992058;28;20042;-74
2022/09/06 05:24:38;;;;;;;8.45;6.10;;;18.40;99.90;;;;;;4975953;28;20093;-75
2022/09/06 05:27:06;;;;;;;15.25;7.13;;;18.40;99.90;;;;;;5004403;28;20048;-75
2022/09/06 05:29:32;;;;;;;7.20;6.50;;;18.40;99.90;;;;;;5011580;28;20061;-75
2022/09/06 05:31:58;;;;;;;15.80;7.05;;;18.40;99.90;;;;;;5011487;28;20053;-76
2022/09/06 05:34:24;;;;;;;12.52;6.97;;;18.40;99.90;;;;;;5028792;28;20041;-75
2022/09/06 05:36:49;;;;;;;9.68;6.85;;;18.50;99.90;;;;;;5012201;28;20044;-74
2022/09/06 05:39:17;;;;;;;15.23;6.68;;;18.50;99.90;;;;;;5010965;28;20045;-75
2022/09/06 05:41:43;;;;;;;9.73;7.20;;;18.50;99.90;;;;;;5011333;28;20457;-76
2022/09/06 05:44:09;;;;;;;8.15;7.05;;;18.50;99.90;;;;;;4992492;28;20068;-74
2022/09/06 05:46:44;;;;;;;11.55;6.95;;;18.50;99.90;;;;;;5011590;28;20048;-75
2022/09/06 05:49:11;;;;;;;10.82;7.75;;;18.50;99.90;;;;;;5010296;28;20081;-75
2022/09/06 05:51:38;;;;;;;12.70;7.10;;;18.60;99.90;;;;;;5011172;28;20045;-74
2022/09/06 05:54:21;;;;;;;14.90;7.63;;;18.60;99.90;;;;;;5011714;28;20038;-75
2022/09/06 05:56:47;;;;;;;10.82;7.40;;;18.60;99.90;;;;;;4995456;28;20095;-75
2022/09/06 05:59:13;;;;;;;14.07;7.82;;;18.70;99.90;;;;;;4994070;28;20085;-75
2022/09/06 06:01:47;;;;;;;14.38;7.53;;;18.70;99.90;;;;;;5009327;28;20073;-75
2022/09/06 06:04:13;;;;;;;14.00;7.57;;;18.70;99.90;;;;;;4993377;28;20046;-75
2022/09/06 06:06:39;;;;;;;17.67;8.48;;;18.80;99.90;;;;;;4975465;28;20108;-75
2022/09/06 06:09:05;;;;;;;15.23;7.95;;;18.80;99.90;;;;;;4974908;28;20065;-75
2022/09/06 06:11:31;;;;;;;17.90;8.13;;;18.90;99.90;;;;;;4991085;28;20057;-76
2022/09/06 06:13:58;;;;;;;10.85;7.70;;;18.90;99.90;;;;;;4990209;28;20506;-74
2022/09/06 06:16:24;;;;;;;12.95;8.55;;;19.00;99.90;;;;;;4995668;28;20037;-75
2022/09/06 06:18:50;;;;;;;15.20;8.70;;;18.90;99.90;;;;;;4976732;28;20147;-75
2022/09/06 06:21:27;;;;;;;12.60;8.75;;;18.90;99.90;;;;;;4991297;28;20042;-76
2022/09/06 06:23:55;;;;;;;15.95;8.77;;;19.00;99.90;;;;;;4991093;28;20125;-76
2022/09/06 06:26:22;;;;;;;13.73;8.93;;;19.00;99.90;;;;;;4991561;28;20152;-75
2022/09/06 06:28:47;;;;;;;15.40;9.80;;;19.00;99.90;;;;;;4990304;28;20054;-75
2022/09/06 06:31:14;;;;;;;12.73;9.55;;;19.00;99.90;;;;;;5000842;28;20044;-75
2022/09/06 06:33:40;;;;;;;18.17;9.00;;;19.10;99.90;;;;;;4992766;28;20141;-76
2022/09/06 06:36:13;;;;;;;15.10;9.20;;;19.10;99.90;;;;;;4994441;28;20034;-76
2022/09/06 06:38:41;;;;;;;13.05;9.27;;;19.20;99.90;;;;;;5007272;28;20125;-76
2022/09/06 06:41:09;;;;;;;13.05;8.50;;;19.20;99.90;;;;;;5004244;28;20045;-75
2022/09/06 06:43:36;;;;;;;13.70;9.30;;;19.20;99.90;;;;;;5009496;28;20042;-76
2022/09/06 06:46:06;;;;;;;14.90;8.43;;;19.20;99.90;;;;;;5010328;28;20378;-76
2022/09/06 06:48:31;;;;;;;13.73;8.77;;;19.30;99.90;;;;;;4974987;28;20382;-75
2022/09/06 06:50:57;;;;;;;13.25;9.07;;;19.30;99.90;;;;;;5008535;28;20053;-75
2022/09/06 06:53:23;;;;;;;18.20;9.18;;;19.40;99.90;;;;;;5009790;28;20043;-75
2022/09/06 06:55:48;;;;;;;18.10;9.27;;;19.40;99.90;;;;;;5010351;28;20447;-75
2022/09/06 06:58:15;;;;;;;15.65;9.07;;;19.40;99.90;;;;;;5009386;28;20042;-74
2022/09/06 07:00:42;;;;;;;14.73;8.35;;;19.50;99.90;;;;;;4994408;28;20049;-76
2022/09/06 07:03:08;;;;;;;15.07;8.75;;;19.60;99.90;;;;;;4994665;28;20050;-75
2022/09/06 07:05:35;;;;;;;23.25;9.40;;;19.60;99.90;;;;;;4994747;28;20046;-76
2022/09/06 07:08:02;;;;;;;15.38;8.90;;;19.70;99.90;;;;;;4994366;28;20473;-75
2022/09/06 07:10:28;;;;;;;14.55;9.30;;;19.70;99.90;;;;;;4997457;28;20058;-76
2022/09/06 07:12:54;;;;;;;10.60;9.50;;;19.70;99.90;;;;;;4996801;28;20108;-76
2022/09/06 07:15:19;;;;;;;15.85;9.40;;;19.70;99.90;;;;;;5013969;28;20077;-75
2022/09/06 07:17:45;;;;;;;13.00;9.07;;;19.70;99.90;;;;;;5013558;28;20046;-75
2022/09/06 07:20:11;;;;;;;12.18;9.25;;;19.70;99.90;;;;;;4997480;28;20046;-76
2022/09/06 07:22:38;;;;;;;13.63;9.48;;;19.80;99.90;;;;;;5013841;28;20095;-75
2022/09/06 07:25:04;;;;;;;13.00;9.20;;;19.80;99.90;;;;;;5012057;28;20657;-76
2022/09/06 07:27:29;;;;;;;17.60;9.57;;;19.90;99.90;;;;;;5014207;28;20049;-76
2022/09/06 07:29:55;;;;;;;11.50;9.30;;;20.00;99.90;;;;;;5011753;28;20041;-75
2022/09/06 07:32:21;;;;;;;11.50;9.70;;;20.10;99.90;;;;;;5013821;28;20061;-75
2022/09/06 07:34:46;;;;;;;12.35;9.65;;;20.10;99.90;;;;;;5033791;28;20049;-76
2022/09/06 07:37:12;;;;;;;11.00;9.40;;;20.10;99.90;;;;;;5020964;28;20446;-75
2022/09/06 07:39:38;;;;;;;16.42;9.63;;;20.10;99.90;;;;;;5010079;28;20062;-76
2022/09/06 07:42:05;;;;;;;14.68;9.55;;;20.10;99.90;;;;;;4993571;28;20108;-76
2022/09/06 07:44:31;;;;;;;10.95;9.25;;;20.10;99.90;;;;;;4995238;28;20061;-76
2022/09/06 07:46:56;;;;;;;21.38;10.00;;;20.10;99.90;;;;;;4997214;28;20034;-76
2022/09/06 07:49:22;;;;;;;10.82;9.50;;;20.10;99.90;;;;;;5011958;28;20466;-76
2022/09/06 07:51:48;;;;;;;13.07;9.75;;;20.10;99.90;;;;;;5013586;28;20045;-75
2022/09/06 07:54:13;;;;;;;15.05;10.50;;;20.00;99.90;;;;;;4996638;28;20049;-75
2022/09/06 07:56:39;;;;;;;20.45;11.07;;;20.10;99.90;;;;;;4996426;28;20048;-74
2022/09/06 07:59:05;;;;;;;14.77;10.07;;;20.10;99.90;;;;;;4992657;28;20117;-75
2022/09/06 08:01:36;;;;;;;13.35;10.15;;;20.20;99.90;;;;;;4977539;28;20085;-75
2022/09/06 08:04:04;;;;;;;13.25;10.38;;;20.20;99.90;;;;;;4993971;28;20446;-75
2022/09/06 08:06:32;;;;;;;19.70;10.13;;;20.30;99.90;;;;;;4992072;28;20149;-75
2022/09/06 08:08:59;;;;;;;14.65;10.10;;;20.30;99.90;;;;;;4995528;28;20434;-75
2022/09/06 08:11:27;;;;;;;11.32;9.88;;;20.40;99.90;;;;;;4991500;28;20054;-75
2022/09/06 08:13:54;;;;;;;15.45;10.25;;;20.40;99.90;;;;;;4992590;28;20042;-75
2022/09/06 08:16:21;;;;;;;14.55;10.50;;;20.50;99.90;;;;;;4993201;28;20447;-75
2022/09/06 08:18:52;;;;;;;13.32;9.70;;;20.50;99.90;;;;;;4987309;28;20119;-75
2022/09/06 08:21:18;;;;;;;13.02;10.60;;;20.50;99.90;;;;;;4996399;28;20168;-75
2022/09/06 08:23:46;;;;;;;13.00;10.48;;;20.60;99.90;;;;;;4995944;28;20139;-74
2022/09/06 08:26:12;;;;;;;14.90;10.50;;;20.70;99.90;;;;;;5010904;28;20037;-75
2022/09/06 08:28:37;;;;;;;13.35;10.55;;;20.80;99.90;;;;;;4993587;28;20052;-75
2022/09/06 08:31:07;;;;;;;13.85;10.63;;;20.80;99.90;;;;;;4976583;28;20048;-75
2022/09/06 08:33:32;;;;;;;13.68;10.27;;;20.90;99.90;;;;;;5010075;28;20030;-75
2022/09/06 08:35:59;;;;;;;11.20;9.90;;;20.90;99.90;;;;;;5009358;28;20326;-75
2022/09/06 08:38:26;;;;;;;12.85;10.30;;;21.00;99.90;;;;;;5012155;28;20115;-76
2022/09/06 08:40:54;;;;;;;15.98;10.70;;;21.10;99.90;;;;;;5012313;28;20060;-76
2022/09/06 08:43:21;;;;;;;18.55;10.65;;;21.20;99.90;;;;;;4978891;28;20045;-76
2022/09/06 08:45:53;;;;;;;15.15;10.68;;;21.20;99.90;;;;;;4995888;28;20132;-76
2022/09/06 08:48:20;;;;;;;12.68;10.23;;;21.30;99.90;;;;;;4995650;28;20481;-76
2022/09/06 08:51:09;;;;;;;20.52;10.15;;;21.40;99.90;;;;;;5012312;28;20042;-76
2022/09/06 08:53:41;;;;;;;11.35;9.70;;;21.50;99.90;;;;;;4993863;28;20044;-77
2022/09/06 08:56:59;;;;;;;16.10;9.60;;;21.60;99.90;;;;;;4995559;28;20037;-75
2022/09/06 08:59:24;;;;;;;11.82;9.88;;;21.70;99.90;;;;;;4977484;28;20477;-76
2022/09/06 09:02:09;;;;;;;11.27;9.68;;;21.90;99.90;;;;;;4994155;28;20057;-75
2022/09/06 09:04:37;;;;;;;;;;;22.00;99.90;;;;;;4978442;28;20054;-76
2022/09/06 09:07:42;;;;;;;13.30;8.20;;;22.10;99.90;;;;;;4994423;28;20361;-76
2022/09/06 09:10:55;;;;;;;11.60;8.77;;;22.20;99.90;;;;;;4926582;29;20098;-76
2022/09/06 09:13:52;;;;;;;9.38;8.18;;;22.20;99.90;;;;;;4905630;29;20064;-75
2022/09/06 09:16:18;;;;;;;13.75;8.50;;;22.30;99.90;;;;;;4898137;29;20062;-76
2022/09/06 09:18:49;;;;;;;11.48;8.43;;;22.40;99.90;;;;;;4871133;29;20044;-76
2022/09/06 09:21:18;;;;;;;11.10;7.90;;;22.40;99.90;;;;;;4876529;29;20077;-76
2022/09/06 09:23:51;;;;;;;10.50;8.30;;;22.50;99.90;;;;;;4891299;29;20112;-76
2022/09/06 09:26:17;;;;;;;10.27;7.85;;;22.70;99.90;;;;;;4860611;29;20103;-75
2022/09/06 09:29:06;;;;;;;12.13;8.35;;;22.90;99.90;;;;;;4878252;29;20564;-76
2022/09/06 09:31:46;;;;;;;14.55;9.02;;;23.10;99.90;;;;;;4879123;29;20137;-76
2022/09/06 09:34:33;;;;;;;18.85;9.07;;;23.20;99.90;;;;;;4878443;29;20485;-76
2022/09/06 09:37:11;;;;;;;15.07;7.55;;;23.30;99.90;;;;;;4893504;29;20096;-75
2022/09/06 09:39:39;;;;;;;13.00;8.80;;;23.50;99.90;;;;;;4893937;29;20057;-75
2022/09/06 09:42:06;;;;;;;14.63;8.55;;;23.60;99.90;;;;;;4876953;29;20063;-76
2022/09/06 09:44:32;;;;;;;11.15;8.95;;;23.70;99.90;;;;;;4879078;29;20049;-76
2022/09/06 09:46:58;;;;;;;10.50;7.78;;;23.60;99.90;;;;;;4885885;29;20460;-76
2022/09/06 09:49:24;;;;;;;18.52;7.75;;;23.70;99.90;;;;;;4955579;28;20073;-76
2022/09/06 09:52:06;;;;;;;13.93;7.80;;;23.80;99.90;;;;;;4995728;28;20096;-76
2022/09/06 09:54:36;;;;;;;13.10;7.45;;;24.00;99.90;;;;;;5010583;28;20100;-77
2022/09/06 09:57:16;;;;;;;10.68;7.75;;;24.20;99.90;;;;;;5010113;28;20111;-77
2022/09/06 09:59:48;;;;;;;14.38;8.15;;;24.40;99.90;;;;;;5009096;28;20042;-76
2022/09/06 10:02:28;;;;;;;18.42;8.07;;;24.50;99.90;;;;;;5010842;28;20048;-76
2022/09/06 10:05:05;;;;;;;13.50;7.70;;;24.60;99.90;;;;;;4992991;28;20244;-76
2022/09/06 10:07:32;;;;;;;8.77;7.80;;;24.60;99.90;;;;;;5010473;28;20129;-75
2022/09/06 10:10:11;;;;;;;11.32;8.52;;;24.60;99.90;;;;;;4978162;28;20466;-76
2022/09/06 10:12:39;;;;;;;15.45;8.50;;;24.70;99.90;;;;;;4993260;28;20056;-76
2022/09/06 10:15:08;;;;;;;14.40;7.70;;;24.80;99.90;;;;;;5008925;28;20133;-75
2022/09/06 10:17:50;;;;;;;11.07;8.38;;;25.00;99.90;;;;;;4991757;28;20046;-75
2022/09/06 10:20:21;;;;;;;17.67;8.20;;;25.20;99.90;;;;;;5010237;28;20034;-75
2022/09/06 10:22:54;;;;;;;13.27;8.38;;;25.30;99.90;;;;;;5010249;28;20045;-76
2022/09/06 10:25:32;;;;;;;21.43;8.83;;;25.30;99.90;;;;;;5009996;28;20455;-75
2022/09/06 10:28:07;;;;;;;14.45;8.55;;;25.50;99.90;;;;;;4994973;28;20061;-75
2022/09/06 10:30:37;;;;;;;15.95;8.57;;;25.50;99.90;;;;;;4990417;28;20051;-76
2022/09/06 10:33:37;;;;;;;14.10;8.70;;;25.70;99.90;;;;;;5012573;28;20454;-76
2022/09/06 10:36:03;;;;;;;16.13;7.70;;;25.60;99.80;;;;;;4990849;28;20038;-75
2022/09/06 10:38:41;;;;;;;13.07;7.85;;;25.70;99.90;;;;;;4989999;28;20196;-74
2022/09/06 10:41:35;;;;;;;11.57;7.90;;;25.90;99.70;;;;;;4993706;28;20107;-75
2022/09/06 10:44:11;;;;;;;14.93;8.43;;;26.00;99.50;;;;;;5008833;28;20129;-75
2022/09/06 10:46:42;;;;;;;13.80;8.38;;;26.20;99.00;;;;;;4983050;28;20050;-75
2022/09/06 10:49:14;;;;;;;11.15;7.95;;;26.30;98.80;;;;;;4986008;28;20089;-76
2022/09/06 10:51:48;;;;;;;15.18;8.75;;;26.70;98.70;;;;;;4990093;28;20049;-75
2022/09/06 10:54:20;;;;;;;14.50;9.10;;;26.70;98.90;;;;;;4990098;28;20130;-76
2022/09/06 10:56:57;;;;;;;11.95;7.78;;;26.70;98.40;;;;;;4990209;28;20042;-76
2022/09/06 10:59:29;;;;;;;9.15;7.38;;;26.70;98.40;;;;;;4991373;28;20042;-76
2022/09/06 11:02:34;;;;;;;14.27;8.07;;;26.90;98.30;;;;;;4993386;28;20046;-76
2022/09/06 11:05:10;;;;;;;9.20;8.02;;;27.00;98.10;;;;;;4992563;28;20065;-75
2022/09/06 11:07:45;;;;;;;13.65;7.68;;;27.30;97.90;;;;;;4992461;28;20045;-76
2022/09/06 11:10:13;;;;;;;14.60;7.32;;;27.40;97.30;;;;;;4992188;28;20413;-75
2022/09/06 11:12:56;;;;;;;9.10;6.70;;;27.40;97.60;;;;;;4990971;28;20038;-76
2022/09/06 11:15:24;;;;;;;15.57;7.72;;;27.30;96.80;;;;;;4974527;28;20151;-76
2022/09/06 11:18:18;;;;;;;19.00;6.95;;;27.50;97.10;;;;;;4991972;28;20120;-76
2022/09/06 11:21:03;;;;;;;10.60;7.53;;;27.70;97.50;;;;;;4976223;28;20077;-76
2022/09/06 11:23:51;;;;;;;10.77;6.20;;;27.90;96.80;;;;;;4992147;28;20489;-74
2022/09/06 11:26:35;;;;;;;10.48;6.50;;;28.20;96.20;;;;;;4992071;28;20046;-76
2022/09/06 11:29:09;;;;;;;13.13;6.10;;;28.30;95.90;;;;;;4993708;28;20054;-76
2022/09/06 11:31:55;;;;;;;12.27;6.60;;;28.40;96.40;;;;;;4972909;28;20518;-76
2022/09/06 11:34:34;;;;;;;7.18;5.63;;;28.30;95.90;;;;;;4991158;28;20487;-76
2022/09/06 11:37:03;;;;;;;12.18;5.82;;;28.50;95.50;;;;;;4992141;28;20038;-76
2022/09/06 11:39:37;;;;;;;12.32;5.88;;;28.70;95.20;;;;;;4975962;28;20038;-75
2022/09/06 11:42:06;;;;;;;;;;;28.30;94.80;;;;;;4997528;28;20054;-75
2022/09/06 11:44:57;;;;;;;9.15;5.30;;;28.00;95.20;;;;;;4990010;28;20365;-77
2022/09/06 11:47:42;;;;;;;9.68;5.40;;;28.20;95.30;;;;;;4975756;28;20046;-77
2022/09/06 11:50:52;;;;;;;8.00;4.88;;;28.10;95.00;;;;;;5009306;28;20045;-77
2022/09/06 11:53:22;;;;;;;7.15;4.93;;;28.40;95.10;;;;;;4979304;28;20145;-76
2022/09/06 11:56:21;;;;;;;11.15;4.95;;;28.40;95.50;;;;;;4979220;28;20058;-76
2022/09/06 11:58:52;;;;;;;8.60;5.10;;;28.60;95.30;;;;;;4952290;29;20059;-76
2022/09/06 12:01:19;;;;;;;6.50;4.25;;;28.90;94.60;;;;;;4921360;29;20138;-75
2022/09/06 12:03:47;;;;;;;6.05;4.90;;;29.20;94.50;;;;;;4953214;29;20130;-75
2022/09/06 12:06:19;;;;;;;5.80;4.40;;;29.10;93.70;;;;;;4948793;28;20054;-76
2022/09/06 12:08:51;;;;;;;7.95;4.07;;;29.40;94.20;;;;;;4905551;29;20039;-76
2022/09/06 12:11:40;;;;;;;6.72;3.72;;;29.60;93.90;;;;;;4937361;29;20467;-75
2022/09/06 12:14:38;;;;;;;7.15;4.30;;;29.90;93.60;;;;;;4936107;28;20062;-76
2022/09/06 12:17:05;;;;;;;7.35;4.05;;;29.70;93.10;;;;;;4927777;29;20051;-76
2022/09/06 12:20:04;;;;;;;6.80;3.85;;;29.90;93.00;;;;;;4924522;29;20114;-75
2022/09/06 12:22:34;;;;;;;6.28;3.70;;;30.10;93.20;;;;;;4919134;29;20134;-75
2022/09/06 12:25:33;;;;;;;8.60;4.07;;;30.20;92.80;;;;;;4937171;29;20066;-76
2022/09/06 12:27:58;;;;;;;8.73;4.35;;;30.20;92.60;;;;;;4935905;29;20046;-76
2022/09/06 12:30:37;;;;;;;7.80;4.20;;;30.30;92.20;;;;;;4920471;29;20492;-76
2022/09/06 12:33:35;;;;;;;9.43;3.80;;;30.60;92.00;;;;;;4930721;28;20112;-76
2022/09/06 12:36:21;;;;;;;8.13;3.40;;;30.60;92.30;;;;;;4955940;28;20133;-77
2022/09/06 12:39:07;;;;;;;5.57;3.78;;;31.00;91.90;;;;;;4981132;28;20126;-76
2022/09/06 12:41:42;;;;;;;5.40;3.80;;;31.10;91.40;;;;;;4955980;28;20142;-76
2022/09/06 12:44:08;;;;;;;6.47;3.78;;;31.00;91.40;;;;;;4955390;28;20046;-76
2022/09/06 12:46:35;;;;;;;5.05;3.60;;;30.90;91.20;;;;;;4940418;28;20501;-76
2022/09/06 12:49:11;;;;;;;5.53;3.33;;;30.90;91.00;;;;;;4955740;28;20042;-76
2022/09/06 12:51:39;;;;;;;11.68;3.38;;;31.40;91.80;;;;;;4956179;28;20385;-76
2022/09/06 12:54:19;;;;;;;6.45;3.38;;;31.80;92.20;;;;;;4956037;28;20073;-76
2022/09/06 12:56:44;;;;;;;9.60;3.63;;;32.10;91.20;;;;;;4954088;28;20125;-76
2022/09/06 12:59:19;;;;;;;4.80;3.10;;;32.10;91.10;;;;;;4953820;28;20558;-76
2022/09/06 13:02:12;;;;;;;7.80;3.40;;;31.90;90.80;;;;;;4956149;28;20046;-76
2022/09/06 13:04:47;;;;;;;8.00;3.72;;;31.90;91.10;;;;;;4955729;28;20167;-77
2022/09/06 13:07:17;;;;;;;3.88;3.28;;;31.90;90.20;;;;;;4936418;29;20043;-77